Gazpromneft East — UBOF4 — position and weather

sailwx.info

Track history (hours):
 
Tides and Currents Weather Stations Pressure Air Temp Water Temp Dewpoint Dewpoint Depression Visibility Wind Speed Wind Dir Waves Ship Positions

Gazpromneft East

Last reported at 2015-Mar-03 21:33 UTC. Time now 2015-Mar-04 00:15 UTC.
Position N 59°53' E 030°13'.

Length 79 m; draft 5 m.

Type: Tanker. MMSI: 273335320.

Date/timePositionNaut miles runAvg speedWind from/ knotsBaromVisibWave heightAir tempDewpointWater temp
2015-Mar-03 21:33N 59°53' E 030°13'0 0.2
2015-Mar-03 20:04N 59°54' E 030°13'0 0.0
2015-Mar-03 19:20N 59°54' E 030°13'0 0.0
2015-Mar-03 18:16N 59°54' E 030°13'1 0.2
2015-Mar-03 15:15N 59°53' E 030°14'0 0.2
2015-Mar-03 13:32N 59°54' E 030°14'0 0.0
2015-Mar-03 12:20N 59°53' E 030°14'1 0.2
2015-Mar-03 05:33N 59°53' E 030°12'1 0.0
2015-Mar-02 16:29N 59°53' E 030°11'2 1.7
2015-Mar-02 15:33N 59°54' E 030°14'0 0.0
2015-Mar-02 14:24N 59°54' E 030°14'0 0.1
2015-Mar-02 13:07N 59°54' E 030°14'1 0.1
2015-Mar-01 18:13N 59°53' E 030°11'4 5.3
2015-Mar-01 17:33N 59°55' E 030°16'0 0.2
2015-Mar-01 16:33N 59°55' E 030°16'0 0.0
2015-Mar-01 15:33N 59°55' E 030°16'1 1.4
2015-Mar-01 14:33N 59°54' E 030°14'1 0.2
2015-Mar-01 07:06N 59°53' E 030°13'2 0.1
2015-Feb-28 13:27N 59°53' E 030°09'3 3.6
2015-Feb-28 12:32N 59°55' E 030°14'0 0.0
2015-Feb-28 11:33N 59°55' E 030°14'0 0.0
2015-Feb-28 10:33N 59°55' E 030°14'0 0.0
2015-Feb-28 09:33N 59°55' E 030°14'0 0.0
2015-Feb-28 08:33N 59°55' E 030°14'2 2.0
2015-Feb-28 07:33N 59°54' E 030°13'0 0.1
2015-Feb-28 03:31N 59°53' E 030°13'0 0.2
2015-Feb-28 02:33N 59°54' E 030°13'0 0.0
2015-Feb-27 22:14N 59°53' E 030°13'1 0.3
2015-Feb-27 20:22N 59°53' E 030°14'0 0.0
2015-Feb-27 09:16N 59°53' E 030°14'0 0.0
2015-Feb-27 03:32N 59°53' E 030°14'0 0.1
2015-Feb-27 02:08N 59°53' E 030°13'2 0.1
2015-Feb-26 03:33N 59°55' E 030°14'0 0.1
2015-Feb-26 02:33N 59°55' E 030°15'0 0.0
2015-Feb-26 01:33N 59°55' E 030°15'0 0.0
2015-Feb-26 00:33N 59°55' E 030°15'0 0.0
2015-Feb-25 23:33N 59°55' E 030°15'2 1.8
2015-Feb-25 22:33N 59°53' E 030°12'0 0.0
2015-Feb-25 21:33N 59°53' E 030°12'0 0.0
2015-Feb-25 20:33N 59°53' E 030°12'0 0.0
2015-Feb-25 19:34N 59°53' E 030°12'0 0.0
2015-Feb-25 18:33N 59°53' E 030°12'0 0.0
2015-Feb-25 17:33N 59°53' E 030°12'0 0.1
2015-Feb-25 15:12N 59°53' E 030°13'0 0.0
2015-Feb-25 11:33N 59°53' E 030°12'0 0.0
2015-Feb-25 10:33N 59°53' E 030°12'1 0.0
2015-Feb-24 20:03N 59°53' E 030°13'1 0.3
2015-Feb-24 16:33N 59°53' E 030°12'1 0.3
2015-Feb-24 12:33N 59°54' E 030°14'0 0.1
2015-Feb-24 11:24N 59°54' E 030°14'1 0.7
2015-Feb-24 10:28N 59°53' E 030°13'1 0.0
2015-Feb-23 09:33N 59°54' E 030°13'1 0.6
2015-Feb-23 08:33N 59°54' E 030°13'0 0.0
2015-Feb-23 07:32N 59°54' E 030°13'0 0.0
2015-Feb-23 06:33N 59°54' E 030°13'0 0.0
2015-Feb-23 05:33N 59°54' E 030°13'0 0.0
2015-Feb-23 04:33N 59°54' E 030°13'0 0.0
2015-Feb-23 03:32N 59°54' E 030°13'0 0.0
2015-Feb-23 02:33N 59°54' E 030°13'0 0.0
2015-Feb-23 01:33N 59°54' E 030°13'0 0.0
2015-Feb-23 00:33N 59°54' E 030°13'0 0.0
2015-Feb-22 23:33N 59°54' E 030°13'0 0.0
2015-Feb-22 22:33N 59°54' E 030°13'0 0.0
2015-Feb-22 21:33N 59°54' E 030°13'0 0.0
2015-Feb-22 20:33N 59°54' E 030°13'0 0.0
2015-Feb-22 19:32N 59°54' E 030°13'0 0.0
2015-Feb-22 18:33N 59°54' E 030°13'0 0.0
2015-Feb-22 17:33N 59°54' E 030°13'0 0.0
2015-Feb-22 16:33N 59°54' E 030°13'0 0.0
2015-Feb-22 15:33N 59°54' E 030°13'0 0.0
2015-Feb-22 14:33N 59°54' E 030°13'0 0.0
2015-Feb-22 13:33N 59°54' E 030°13'  
Track history (hours):
 
Tides and Currents Weather Stations Pressure Air Temp Water Temp Dewpoint Dewpoint Depression Visibility Wind Speed Wind Dir Waves Ship Positions

Gazpromneft East

Last reported at 2015-Mar-03 21:33 UTC. Time now 2015-Mar-04 00:15 UTC.
Position N 59°53' E 030°13'.

Length 79 m; draft 5 m.

Type: Tanker. MMSI: 273335320.

Date/timePositionNaut miles runAvg speedWind from/ knotsBaromVisibWave heightAir tempDewpointWater temp
2015-Mar-03 21:33N 59°53' E 030°13'0 0.2
2015-Mar-03 20:04N 59°54' E 030°13'0 0.0
2015-Mar-03 19:20N 59°54' E 030°13'0 0.0
2015-Mar-03 18:16N 59°54' E 030°13'1 0.2
2015-Mar-03 15:15N 59°53' E 030°14'0 0.2
2015-Mar-03 13:32N 59°54' E 030°14'0 0.0
2015-Mar-03 12:20N 59°53' E 030°14'1 0.2
2015-Mar-03 05:33N 59°53' E 030°12'1 0.0
2015-Mar-02 16:29N 59°53' E 030°11'2 1.7
2015-Mar-02 15:33N 59°54' E 030°14'0 0.0
2015-Mar-02 14:24N 59°54' E 030°14'0 0.1
2015-Mar-02 13:07N 59°54' E 030°14'1 0.1
2015-Mar-01 18:13N 59°53' E 030°11'4 5.3
2015-Mar-01 17:33N 59°55' E 030°16'0 0.2
2015-Mar-01 16:33N 59°55' E 030°16'0 0.0
2015-Mar-01 15:33N 59°55' E 030°16'1 1.4
2015-Mar-01 14:33N 59°54' E 030°14'1 0.2
2015-Mar-01 07:06N 59°53' E 030°13'2 0.1
2015-Feb-28 13:27N 59°53' E 030°09'3 3.6
2015-Feb-28 12:32N 59°55' E 030°14'0 0.0
2015-Feb-28 11:33N 59°55' E 030°14'0 0.0
2015-Feb-28 10:33N 59°55' E 030°14'0 0.0
2015-Feb-28 09:33N 59°55' E 030°14'0 0.0
2015-Feb-28 08:33N 59°55' E 030°14'2 2.0
2015-Feb-28 07:33N 59°54' E 030°13'0 0.1
2015-Feb-28 03:31N 59°53' E 030°13'0 0.2
2015-Feb-28 02:33N 59°54' E 030°13'0 0.0
2015-Feb-27 22:14N 59°53' E 030°13'1 0.3
2015-Feb-27 20:22N 59°53' E 030°14'0 0.0
2015-Feb-27 09:16N 59°53' E 030°14'0 0.0
2015-Feb-27 03:32N 59°53' E 030°14'0 0.1
2015-Feb-27 02:08N 59°53' E 030°13'2 0.1
2015-Feb-26 03:33N 59°55' E 030°14'0 0.1
2015-Feb-26 02:33N 59°55' E 030°15'0 0.0
2015-Feb-26 01:33N 59°55' E 030°15'0 0.0
2015-Feb-26 00:33N 59°55' E 030°15'0 0.0
2015-Feb-25 23:33N 59°55' E 030°15'2 1.8
2015-Feb-25 22:33N 59°53' E 030°12'0 0.0
2015-Feb-25 21:33N 59°53' E 030°12'0 0.0
2015-Feb-25 20:33N 59°53' E 030°12'0 0.0
2015-Feb-25 19:34N 59°53' E 030°12'0 0.0
2015-Feb-25 18:33N 59°53' E 030°12'0 0.0
2015-Feb-25 17:33N 59°53' E 030°12'0 0.1
2015-Feb-25 15:12N 59°53' E 030°13'0 0.0
2015-Feb-25 11:33N 59°53' E 030°12'0 0.0
2015-Feb-25 10:33N 59°53' E 030°12'1 0.0
2015-Feb-24 20:03N 59°53' E 030°13'1 0.3
2015-Feb-24 16:33N 59°53' E 030°12'1 0.3
2015-Feb-24 12:33N 59°54' E 030°14'0 0.1
2015-Feb-24 11:24N 59°54' E 030°14'1 0.7
2015-Feb-24 10:28N 59°53' E 030°13'1 0.0
2015-Feb-23 09:33N 59°54' E 030°13'1 0.6
2015-Feb-23 08:33N 59°54' E 030°13'0 0.0
2015-Feb-23 07:32N 59°54' E 030°13'0 0.0
2015-Feb-23 06:33N 59°54' E 030°13'0 0.0
2015-Feb-23 05:33N 59°54' E 030°13'0 0.0
2015-Feb-23 04:33N 59°54' E 030°13'0 0.0
2015-Feb-23 03:32N 59°54' E 030°13'0 0.0
2015-Feb-23 02:33N 59°54' E 030°13'0 0.0
2015-Feb-23 01:33N 59°54' E 030°13'0 0.0
2015-Feb-23 00:33N 59°54' E 030°13'0 0.0
2015-Feb-22 23:33N 59°54' E 030°13'0 0.0
2015-Feb-22 22:33N 59°54' E 030°13'0 0.0
2015-Feb-22 21:33N 59°54' E 030°13'0 0.0
2015-Feb-22 20:33N 59°54' E 030°13'0 0.0
2015-Feb-22 19:32N 59°54' E 030°13'0 0.0
2015-Feb-22 18:33N 59°54' E 030°13'0 0.0
2015-Feb-22 17:33N 59°54' E 030°13'0 0.0
2015-Feb-22 16:33N 59°54' E 030°13'0 0.0
2015-Feb-22 15:33N 59°54' E 030°13'0 0.0
2015-Feb-22 14:33N 59°54' E 030°13'0 0.0
2015-Feb-22 13:33N 59°54' E 030°13'  

Dump ship's entire track history